Lake Park, FL (33403)

2:25 PM EDT on June 03, 2015 (GMT -0400)
Rybovich Boat Company | | Change Station
CLOSE
Current Station
Personal Weather Station
Location: West Palm Beach, FL
Elevation: 10 ft
Nearby Weather Stations

Elev 10 ft 26.75 °N, 80.05 °W | Updated 24 seconds ago

Overcast
Overcast
78.2 °F
Feels Like 81 °F
N
6.8
Wind Variable Wind from ENE
Gusts 11.0 mph

Today
High -- | Low -- °F
--% Chance of Precip.
Yesterday
High -- | Low -- °F
Precip. -- in
6:26 AM 8:10 PM
Full, 99% visible
Pressure 29.97 in
Visibility 1.5 miles
Clouds Mostly Cloudy 1300 ft
Mostly Cloudy 1900 ft
Mostly Cloudy 2700 ft
Heat Index 81 °F
Dew Point 71 °F
Humidity 78%
Rainfall 0.68 in
Snow Depth Not available.
UV 8 out of 12
Pollen .50 out of 12
Air Quality Not available.
Flu Activity Sporadic
SPECI KPBI 031809Z 11014KT 1 1/2SM R10L/2400V5000FT +RA BR BKN013 BKN019CB BKN027 24/23 A2997 RMK AO2 CB OHD-ALQDS MOV NW P0023 T02390228 $

More Conditions Fewer Conditions

Pressure 29.97 in
Visibility 1.5 miles
Clouds Mostly Cloudy 1300 ft
Mostly Cloudy 1900 ft
Mostly Cloudy 2700 ft
Heat Index 81 °F
Dew Point 71 °F
Humidity 78%
Rainfall 0.68 in
Snow Depth Not available.
UV 8 out of 12
Pollen .50 out of 12
Air Quality Not available.
Flu Activity Sporadic
SPECI KPBI 031809Z 11014KT 1 1/2SM R10L/2400V5000FT +RA BR BKN013 BKN019CB BKN027 24/23 A2997 RMK AO2 CB OHD-ALQDS MOV NW P0023 T02390228 $

More Conditions Fewer Conditions

Nowcast | as of 1:53 PM EDT on June 3, 2015

Isolated to scattered showers will continue to develop over the eastern areas of South Florida and move slowly north northwest through the afternoon hours. Rainfall amounts from the heaviest showers can be between half an inch to one inch.

×

10-Day Weather Forecast

×

Almanac

Astronomy

Jun. 03, 2015 Rise Set
Actual Time
Civil Twilight
Nautical Twilight
Astronomical Twilight
Moon
Length of Visible Light
Length of Day
Tomorrow will be .
, % of the Moon is Illuminated

Today's Extremes

State Highs State Lows

Community

WunderPhotos

Upload Photos

1,826,269 photos uploaded!

WunderBlogs® & News

Nearby

Air Quality

  Air Quality AQ Index Pollutant
Not available.

Snow Depth

Station Depth Elevation

Earthquake Activity

City Distance Mag. Time & Date
Minimum magnitude displayed is 2.5.

Coastal Water Temperatures

Place Temperature

Stations

Nearby Weather Stations

Station Location Temp. Windchill Dew Point Humidity Wind Precip. Elev Updated Type